createdAt,value
2022-08-05T00:06:03.467Z,2.5
2022-08-05T00:12:20.491Z,2.5
2022-08-05T00:18:44.211Z,2.8
2022-08-05T00:25:03.475Z,2.8
2022-08-05T00:31:41.706Z,3.6
2022-08-05T00:37:51.599Z,3.6
2022-08-05T00:44:09.476Z,3.5
2022-08-05T00:50:29.504Z,3.5
2022-08-05T00:56:52.461Z,3.6
2022-08-05T01:03:12.708Z,3.6
2022-08-05T01:09:35.479Z,2.3
2022-08-05T01:15:55.542Z,2.3
2022-08-05T01:22:18.946Z,2.5
2022-08-05T01:28:39.383Z,2.5
2022-08-05T01:35:01.473Z,3.1
2022-08-05T01:41:21.814Z,3.1
2022-08-05T01:47:44.475Z,2.4
2022-08-05T01:54:04.492Z,2.4
2022-08-05T02:00:30.226Z,3.5
2022-08-05T02:06:47.506Z,3.5
2022-08-05T02:13:15.708Z,3.4
2022-08-05T02:19:34.139Z,3.4
2022-08-05T02:25:53.531Z,2
2022-08-05T02:32:19.974Z,2
2022-08-05T02:38:36.523Z,5.8
2022-08-05T02:44:56.455Z,5.8
2022-08-05T02:51:19.528Z,4.4
2022-08-05T02:58:08.803Z,4.4
2022-08-05T03:04:11.811Z,2.2
2022-08-05T03:10:24.722Z,2.2
2022-08-05T03:16:45.473Z,2.3
2022-08-05T03:23:05.485Z,2.3
2022-08-05T03:29:44.386Z,4.4
2022-08-05T03:35:48.515Z,4.4
2022-08-05T03:42:11.459Z,4.8
2022-08-05T03:48:35.245Z,4.8
2022-08-05T04:11:19.410Z,11.9
2022-08-05T04:17:55.975Z,11.9
2022-08-05T04:24:06.139Z,18.3
2022-08-05T04:30:22.475Z,18.3
2022-08-05T04:36:50.330Z,6.4
2022-08-05T04:43:05.511Z,6.4
2022-08-05T04:49:38.306Z,6.2
2022-08-05T04:56:11.938Z,6.2
2022-08-05T05:02:35.932Z,4.3
2022-08-05T05:08:31.476Z,4.3
2022-08-05T05:14:54.525Z,6.9
2022-08-05T05:21:14.468Z,6.9
2022-08-05T05:27:42.018Z,5
2022-08-05T05:33:59.062Z,5
2022-08-05T05:40:20.470Z,5.7
2022-08-05T05:46:40.514Z,5.7
2022-08-05T05:53:03.482Z,9.1
2022-08-05T05:59:23.498Z,9.1
2022-08-05T06:05:46.525Z,8.5
2022-08-05T06:12:06.490Z,8.5
2022-08-05T06:18:30.760Z,6.6
2022-08-05T06:24:49.466Z,6.6
2022-08-05T06:31:18.169Z,8.4
2022-08-05T06:37:39.499Z,8.4
2022-08-05T06:43:59.360Z,13.6
2022-08-05T06:50:17.316Z,13.6
2022-08-05T06:56:38.488Z,10.1
2022-08-05T07:02:58.529Z,10.1
2022-08-05T07:09:21.487Z,14.9
2022-08-05T07:16:00.676Z,14.9
2022-08-05T07:22:04.518Z,20
2022-08-05T07:28:24.464Z,20
2022-08-05T07:34:47.553Z,23
2022-08-05T07:41:17.009Z,23
2022-08-05T07:47:39.703Z,27.8
2022-08-05T07:53:51.247Z,27.8
2022-08-05T08:00:13.470Z,14.5
2022-08-05T08:06:33.512Z,14.5
2022-08-05T08:12:58.478Z,17.3
2022-08-05T08:19:18.717Z,17.3
2022-08-05T08:25:59.616Z,11
2022-08-05T08:31:59.481Z,11
2022-08-05T08:38:32.370Z,12.3
2022-08-05T08:45:17.430Z,12.3
2022-08-05T08:51:21.979Z,10.7
2022-08-05T08:57:25.533Z,10.7
2022-08-05T09:03:52.816Z,22.3
2022-08-05T09:10:08.544Z,22.3
2022-08-05T09:16:31.474Z,19
2022-08-05T09:22:51.755Z,19
2022-08-05T09:29:16.097Z,14.9
2022-08-05T09:35:34.492Z,14.9
2022-08-05T09:58:23.404Z,27.9
2022-08-05T10:04:43.448Z,27.9
2022-08-05T10:11:07.104Z,18.6
2022-08-05T10:17:37.007Z,18.6
2022-08-05T10:23:56.327Z,14.3
2022-08-05T10:30:41.623Z,14.3
2022-08-05T10:36:32.639Z,10.7
2022-08-05T10:42:52.699Z,10.7
2022-08-05T10:49:16.366Z,12.1
2022-08-05T10:55:38.643Z,12.1
2022-08-05T11:02:05.316Z,7.7
2022-08-05T11:08:33.959Z,7.7
2022-08-05T11:15:01.099Z,7.5
2022-08-05T11:21:01.476Z,7.5
2022-08-05T11:27:24.878Z,4.5
2022-08-05T11:33:46.161Z,4.5
2022-08-05T11:40:07.603Z,2.6
2022-08-05T11:46:32.310Z,2.6
2022-08-05T11:52:53.258Z,2.3
2022-08-05T11:59:13.652Z,2.3
2022-08-05T12:05:36.189Z,1.4
2022-08-05T12:11:53.470Z,1.4
2022-08-05T12:18:16.860Z,1.5
2022-08-05T12:24:36.502Z,1.5
2022-08-05T12:31:02.141Z,0.7
2022-08-05T12:37:21.531Z,0.7
2022-08-05T12:43:42.489Z,2
2022-08-05T12:50:06.323Z,2
2022-08-05T12:56:34.783Z,1.3
2022-08-05T13:02:47.157Z,1.3
2022-08-05T13:09:08.643Z,0.2
2022-08-05T13:15:36.264Z,0.2
2022-08-05T13:21:52.481Z,1.7
2022-08-05T13:28:11.474Z,1.7
2022-08-05T13:34:34.524Z,1.6
2022-08-05T13:40:54.560Z,1.6
2022-08-05T13:47:28.205Z,1.4
2022-08-05T13:53:47.635Z,1.4
2022-08-05T14:00:01.793Z,1.1
2022-08-05T14:06:24.925Z,1.1
2022-08-05T14:12:48.527Z,1.9
2022-08-05T14:19:04.320Z,1.9
2022-08-05T14:25:27.918Z,1.5
2022-08-05T14:31:54.908Z,1.5
2022-08-05T14:38:28.094Z,2.1
2022-08-05T14:44:30.088Z,2.1
2022-08-05T14:50:52.472Z,1.2
2022-08-05T14:57:13.496Z,1.2
2022-08-05T15:03:38.987Z,2.9
2022-08-05T15:09:55.493Z,2.9
2022-08-05T15:16:18.517Z,2.7
2022-08-05T15:38:49.415Z,2.2
2022-08-05T15:45:09.937Z,2.2
2022-08-05T15:52:04.664Z,1.6
2022-08-05T15:57:52.546Z,1.6
2022-08-05T16:04:15.462Z,0.7
2022-08-05T16:10:35.545Z,0.7
2022-08-05T16:16:58.473Z,1.2
2022-08-05T16:23:18.482Z,1.2
2022-08-05T16:29:45.492Z,1.5
2022-08-05T16:36:01.475Z,1.5
2022-08-05T16:42:27.477Z,0.9
2022-08-05T16:48:44.470Z,0.9
2022-08-05T16:55:07.508Z,0.6
2022-08-05T17:01:27.563Z,0.6
2022-08-05T17:07:53.162Z,0.9
2022-08-05T17:14:13.044Z,0.9
2022-08-05T17:20:33.489Z,1.6
2022-08-05T17:26:53.523Z,1.6
2022-08-05T17:33:16.506Z,0.6
2022-08-05T17:39:36.517Z,0.6
2022-08-05T17:45:59.554Z,0.6
2022-08-05T17:52:19.474Z,0.6
2022-08-05T17:58:42.502Z,0.9
2022-08-05T18:05:02.548Z,0.9
2022-08-05T18:11:29.741Z,0.7
2022-08-05T18:17:58.265Z,0.7
2022-08-05T18:24:08.469Z,0.9
2022-08-05T18:30:28.497Z,0.9
2022-08-05T18:36:51.527Z,0.3
2022-08-05T18:43:16.232Z,0.3
2022-08-05T18:49:44.423Z,0.2
2022-08-05T18:55:54.471Z,0.2
2022-08-05T19:02:27.272Z,0.9
2022-08-05T19:08:37.552Z,0.9
2022-08-05T19:15:02.614Z,0.2
2022-08-05T19:21:20.524Z,0.2
2022-08-05T19:27:43.467Z,0.4
2022-08-05T19:34:03.481Z,0.4
2022-08-05T19:40:26.519Z,0.4
2022-08-05T19:46:46.472Z,0.4
2022-08-05T19:53:10.479Z,0.8
2022-08-05T19:59:55.655Z,0.8
2022-08-05T20:05:52.481Z,0.4
2022-08-05T20:12:12.539Z,0.4
2022-08-05T20:18:36.361Z,0.9
2022-08-05T20:24:55.815Z,0.9
2022-08-05T20:31:21.495Z,0.4
2022-08-05T20:38:05.197Z,0.4
2022-08-05T20:44:06.130Z,0.9
2022-08-05T20:50:21.467Z,0.9
2022-08-05T20:56:44.548Z,0.3
2022-08-05T21:03:04.490Z,0.3
2022-08-05T21:20:10.131Z,0.9
2022-08-05T21:26:27.487Z,0.9
2022-08-05T21:32:50.482Z,1.4
2022-08-05T21:39:10.551Z,1.4
2022-08-05T21:45:38.202Z,1.4
2022-08-05T21:52:16.789Z,1.4
2022-08-05T21:58:16.553Z,0.4
2022-08-05T22:22:31.207Z,1.3
2022-08-05T22:28:50.507Z,1.3
2022-08-05T22:35:13.520Z,1.3
2022-08-05T22:42:05.777Z,1.3
2022-08-05T22:47:56.991Z,0.1
2022-08-05T22:54:16.587Z,0.1
2022-08-05T23:00:39.519Z,0.4
2022-08-05T23:06:59.507Z,0.4
2022-08-05T23:13:22.502Z,1.3
2022-08-05T23:19:46.734Z,1.3
2022-08-05T23:26:05.614Z,0.4
2022-08-05T23:32:25.841Z,0.4
2022-08-05T23:38:48.520Z,1.7
2022-08-05T23:45:14.043Z,1.7
2022-08-05T23:51:31.534Z,2.9
2022-08-05T23:57:52.792Z,2.9
